Hockingport, OH (45739)

07:26 EDT le 23 août 2014 (GMT -0400)
Decatur TWP | Change Station
CLOSE
Current Station
Stations météorologiques personnelles
Location: Little Hocking, OH
Altitude: 719 ft
Stations météo à proximité

Alt. 719 ft 39.31 °N, 81.73 °W | Updated 27 seconds ago

Overcast
Couvert
73.1 ° F
Paraît 70 ° F
N
0.4
Vent Variable Vent de NNO
Gusts 1.1 mph

Aujourd'hui
Haut(e) -- | Bas -- ° F
--% Risque de précip.
Hier
Haut(e) -- | Bas -- ° F
Precip. -- pouce
6:47 AM 8:11 PM
Lune descendante, 4% visible
Pression 30.01 pouce
Visibilité 3.0 Miles terrestres
Nuages Nuages épars 300 ft
Couvert 800 ft
indice de chaleur 70 ° F
Point de rosée 71 ° F
Humidité 92%
Précipitations 0.00 pouce
Profondeur de la couche neigeuse Non disponible.
UV 0 sur 12
Pollen 8.00 sur 12
Qualité de l'air Non disponible.
Flu Activity Non disponible.
SPECI KPKB 231023Z AUTO 00000KT 3SM BR SCT003 OVC008 23/22 A3001 RMK AO2 T02280222

More Conditions Fewer Conditions

Pression 30.01 pouce
Visibilité 3.0 Miles terrestres
Nuages Nuages épars 300 ft
Couvert 800 ft
indice de chaleur 70 ° F
Point de rosée 71 ° F
Humidité 92%
Précipitations 0.00 pouce
Profondeur de la couche neigeuse Non disponible.
UV 0 sur 12
Pollen 8.00 sur 12
Qualité de l'air Non disponible.
Flu Activity Non disponible.
SPECI KPKB 231023Z AUTO 00000KT 3SM BR SCT003 OVC008 23/22 A3001 RMK AO2 T02280222

More Conditions Fewer Conditions

10-Day Weather Forecast

Almanac

Astronomie

Aug. 23, 2014 Lever Coucher
Temps réel 06:47 EDT 20:11 EDT
Crépuscule civil 06:19 EDT 20:39 EDT
Crépuscule nautique 05:45 EDT 21:12 EDT
Crépuscule astronomique 05:10 EDT 21:47 EDT
Lune 05:02 EDT 18:54 EDT
Durée de lumière visible 14h 19m
Longueur du jour
13h 23m
Tomorrow will be 2m 22s shorter.
Lune descendante, 4% of the Moon is Illuminated
Aujourd'hui
Lune descendante
août 25
Nouveau
Sep 2
Premier quartier
Sep 8
Pleine lune
Sep 15
Dernier quartier

Extrêmes aujourd'hui

State Highs State Lows

Community

WunderPhotos

Upload Photos

1,746,418 Photos téléchargées !

WunderBlogs® & News

By Dr. Jeff Masters
Director of Meteorology, Weather Underground
By Kari Strenfel
Meteorologist, Weather Underground
By Christopher C. Burt
Weather Historian, Weather Underground
August 23, 2014
August 23, 2014
August 23, 2014

Nearby

Épaisseur de neige

Station Depth Altitude
Pas de nouvelles chutes de neige

Activité sismique

Ville Distance Mag. Time & Date
No recent earthquake activity has been reported nearby.
Minimum magnitude displayed is 2.5.

Températures des eaux côtières

Lieu Température
Aucun rapport de station

Stations météo à proximité